Time;durP1;ratioP1;P1;durP2;ratioP2;P2;SDS_P1;SDS_P2;PMS_P1;PMS_P2;Temp;Humidity;BMP_temperature;BMP_pressure;BME280_temperature;BME280_humidity;BME280_pressure;Samples;Min_cycle;Max_cycle;Signal;HPM_P1;HPM_P2
2023/04/27 00:00:13;;;;;;;2.05;1.85;;;;;;;13.68;58.87;102036.50;5025390;28;20036;-57
2023/04/27 00:02:39;;;;;;;2.50;1.67;;;;;;;13.67;58.93;102041.00;5026170;28;20044;-57
2023/04/27 00:05:05;;;;;;;3.45;2.08;;;;;;;13.67;59.40;102043.69;5026705;28;20033;-57
2023/04/27 00:07:30;;;;;;;2.13;1.60;;;;;;;13.67;59.22;102040.16;5026129;28;20049;-56
2023/04/27 00:09:56;;;;;;;2.00;1.63;;;;;;;13.66;59.28;102039.25;5026338;28;20065;-56
2023/04/27 00:12:21;;;;;;;3.60;1.77;;;;;;;13.66;59.20;102033.91;5025597;28;20116;-57
2023/04/27 00:14:47;;;;;;;3.80;1.98;;;;;;;13.65;59.18;102032.22;5025895;28;20037;-57
2023/04/27 00:17:12;;;;;;;2.42;1.70;;;;;;;13.66;59.50;102036.59;5025271;28;20041;-56
2023/04/27 00:19:40;;;;;;;1.67;1.58;;;;;;;13.65;59.25;102034.88;5025722;28;20032;-57
2023/04/27 00:22:06;;;;;;;2.95;1.95;;;;;;;13.65;59.13;102042.03;5025878;28;20054;-57
2023/04/27 00:24:31;;;;;;;1.83;1.70;;;;;;;13.64;59.11;102041.16;5026242;28;20106;-56
2023/04/27 00:26:56;;;;;;;2.75;1.80;;;;;;;13.64;59.36;102035.81;5025977;28;20030;-56
2023/04/27 00:29:22;;;;;;;2.00;1.80;;;;;;;13.64;59.39;102035.81;5024868;28;20066;-56
2023/04/27 00:31:47;;;;;;;2.17;1.63;;;;;;;13.63;59.21;102036.78;5026162;28;20435;-57
2023/04/27 00:34:12;;;;;;;2.05;1.70;;;;;;;13.63;59.07;102025.19;5025880;28;20030;-57
2023/04/27 00:36:38;;;;;;;1.52;1.40;;;;;;;13.63;58.86;102042.13;5025747;28;20121;-56
2023/04/27 00:39:05;;;;;;;2.33;1.73;;;;;;;13.63;59.33;102044.81;5024487;28;20033;-57
2023/04/27 00:41:31;;;;;;;2.97;2.00;;;;;;;13.63;58.82;102039.47;5017567;28;20034;-56
2023/04/27 00:43:57;;;;;;;1.90;1.50;;;;;;;13.62;59.26;102035.03;5026258;28;20038;-56
2023/04/27 00:46:23;;;;;;;2.10;1.88;;;;;;;13.61;59.15;102030.66;5025367;28;20390;-56
2023/04/27 00:48:49;;;;;;;2.35;1.75;;;;;;;13.61;58.87;102038.69;5025925;28;20029;-56
2023/04/27 00:51:14;;;;;;;3.45;2.20;;;;;;;13.61;59.02;102032.44;5025040;28;20585;-57
2023/04/27 00:53:40;;;;;;;2.83;1.90;;;;;;;13.61;58.84;102029.78;5025569;28;20040;-57
2023/04/27 00:56:06;;;;;;;3.25;2.03;;;;;;;13.60;58.96;102028.91;5031037;28;20518;-57
2023/04/27 00:58:32;;;;;;;3.65;1.90;;;;;;;13.61;58.95;102027.09;5032430;28;20029;-56
2023/04/27 01:00:58;;;;;;;2.78;1.92;;;;;;;13.61;59.32;102029.78;5032243;28;20078;-56
2023/04/27 01:03:25;;;;;;;2.30;1.85;;;;;;;13.59;59.42;102032.53;5031600;28;20124;-56
2023/04/27 01:05:50;;;;;;;2.67;1.85;;;;;;;13.58;59.39;102028.16;5031625;28;20032;-56
2023/04/27 01:08:16;;;;;;;2.10;1.70;;;;;;;13.59;59.11;102027.19;5031008;28;20052;-57
2023/04/27 01:10:41;;;;;;;2.92;2.08;;;;;;;13.58;59.21;102025.47;5031617;28;20029;-57
2023/04/27 01:13:07;;;;;;;3.15;2.10;;;;;;;13.59;59.24;102029.00;5032296;28;20111;-57
2023/04/27 01:15:32;;;;;;;2.50;2.20;;;;;;;13.58;58.88;102025.47;5031949;28;20475;-56
2023/04/27 01:17:58;;;;;;;2.75;2.22;;;;;;;13.58;58.80;102032.66;5031930;28;20106;-56
2023/04/27 01:20:24;;;;;;;2.63;1.90;;;;;;;13.57;59.09;102039.78;5032471;28;20120;-56
2023/04/27 01:22:50;;;;;;;2.88;2.20;;;;;;;13.57;59.08;102039.78;5031844;28;20043;-56
2023/04/27 01:25:15;;;;;;;2.60;2.20;;;;;;;13.56;59.10;102038.09;5032212;28;20398;-56
2023/04/27 01:27:41;;;;;;;3.05;2.05;;;;;;;13.57;59.08;102033.59;5030026;28;20435;-57
2023/04/27 01:30:07;;;;;;;2.63;2.05;;;;;;;13.56;59.02;102035.41;5014013;28;20079;-56
2023/04/27 01:32:32;;;;;;;3.20;1.83;;;;;;;13.56;58.92;102035.41;5031724;28;20045;-56
2023/04/27 01:34:57;;;;;;;2.38;1.90;;;;;;;13.56;58.70;102032.72;5031667;28;20545;-56
2023/04/27 01:37:23;;;;;;;3.42;2.10;;;;;;;13.55;58.84;102039.03;5035062;28;20032;-56
2023/04/27 01:39:48;;;;;;;2.53;2.10;;;;;;;13.56;59.18;102031.88;5035182;28;20064;-56
2023/04/27 01:42:13;;;;;;;2.35;1.80;;;;;;;13.55;58.93;102027.47;5031802;28;20079;-57
2023/04/27 01:44:39;;;;;;;2.22;1.88;;;;;;;13.54;58.76;102023.94;5030850;28;20037;-56
2023/04/27 01:47:04;;;;;;;2.13;1.77;;;;;;;13.53;58.60;102022.19;5032070;28;20039;-56
2023/04/27 01:49:30;;;;;;;2.60;1.75;;;;;;;13.53;59.04;102027.53;5032034;28;20121;-56
2023/04/27 01:51:55;;;;;;;2.70;2.08;;;;;;;13.54;59.11;102028.44;5031364;28;20280;-56
2023/04/27 01:54:20;;;;;;;2.60;1.63;;;;;;;13.54;58.69;102026.59;5031652;28;20029;-56
2023/04/27 01:56:46;;;;;;;1.90;1.70;;;;;;;13.53;59.13;102026.69;5030732;28;20072;-57
2023/04/27 01:59:11;;;;;;;2.33;1.90;;;;;;;13.53;59.19;102014.16;5030200;28;20095;-57
2023/04/27 02:01:36;;;;;;;3.20;2.20;;;;;;;13.53;58.95;102027.53;5032502;28;20360;-57
2023/04/27 02:04:02;;;;;;;2.55;2.22;;;;;;;13.53;58.86;102026.69;5031343;28;20087;-56
2023/04/27 02:06:28;;;;;;;2.83;2.08;;;;;;;13.52;59.06;102024.94;5029700;28;20403;-57
2023/04/27 02:08:53;;;;;;;2.30;1.90;;;;;;;13.52;59.19;102020.47;5027531;28;20030;-56
2023/04/27 02:11:18;;;;;;;2.22;1.92;;;;;;;13.51;58.95;102017.91;5028083;28;20391;-57
2023/04/27 02:13:44;;;;;;;2.05;1.50;;;;;;;13.51;58.98;102013.41;5028672;28;20442;-56
2023/04/27 02:16:09;;;;;;;2.75;2.10;;;;;;;13.51;59.09;102018.75;5027629;28;20112;-57
2023/04/27 02:18:35;;;;;;;2.80;2.28;;;;;;;13.51;59.22;102021.41;5028884;28;20037;-57
2023/04/27 02:21:00;;;;;;;3.67;2.20;;;;;;;13.50;59.01;102019.72;5027458;28;20495;-56
2023/04/27 02:23:26;;;;;;;2.90;2.08;;;;;;;13.51;58.85;102009.88;5034071;28;20041;-57
2023/04/27 02:25:51;;;;;;;2.53;2.00;;;;;;;13.49;58.79;102004.59;5022723;28;20025;-57
2023/04/27 02:28:17;;;;;;;2.30;1.98;;;;;;;13.49;58.75;102007.28;5027689;28;20061;-57
2023/04/27 02:30:42;;;;;;;2.10;1.85;;;;;;;13.49;59.11;102008.13;5027977;28;20041;-57
2023/04/27 02:33:07;;;;;;;2.10;1.85;;;;;;;13.49;59.09;102000.09;5027771;28;20034;-57
2023/04/27 02:35:33;;;;;;;2.47;2.10;;;;;;;13.48;58.71;101994.88;5027761;28;20030;-56
2023/04/27 02:37:58;;;;;;;2.10;1.88;;;;;;;13.49;59.13;102000.09;5028411;28;20057;-57
2023/04/27 02:40:24;;;;;;;2.60;1.70;;;;;;;13.49;59.13;101999.25;5026320;28;20038;-57
2023/04/27 02:42:50;;;;;;;2.50;1.70;;;;;;;13.47;59.04;101996.66;5028201;28;20026;-56
2023/04/27 02:45:15;;;;;;;2.65;2.17;;;;;;;13.47;58.91;101991.31;5026963;28;20498;-56
2023/04/27 02:47:41;;;;;;;2.50;1.90;;;;;;;13.48;59.02;101986.84;5027698;28;20037;-56
2023/04/27 02:50:07;;;;;;;2.03;1.90;;;;;;;13.48;58.72;101992.19;5031220;28;20454;-57
2023/04/27 02:52:32;;;;;;;2.83;1.80;;;;;;;13.47;58.83;102001.16;5027043;28;20038;-56
2023/04/27 02:54:57;;;;;;;2.95;2.08;;;;;;;13.47;58.94;102002.00;5027882;28;20536;-56
2023/04/27 02:57:23;;;;;;;2.15;1.95;;;;;;;13.48;59.23;102008.25;5009608;28;20037;-57
2023/04/27 02:59:48;;;;;;;2.97;1.58;;;;;;;13.47;58.72;102009.19;5009900;28;20038;-57
2023/04/27 03:02:13;;;;;;;2.00;1.80;;;;;;;13.45;59.05;102003.91;5026694;28;20110;-56
2023/04/27 03:04:39;;;;;;;2.63;2.40;;;;;;;13.45;58.70;101997.69;5027726;28;20088;-56
2023/04/27 03:07:05;;;;;;;2.78;2.05;;;;;;;13.46;59.26;102002.09;5027550;28;20129;-56
2023/04/27 03:09:30;;;;;;;2.28;1.65;;;;;;;13.45;59.08;102000.38;5029799;28;20069;-57
2023/04/27 03:11:55;;;;;;;2.33;1.80;;;;;;;13.44;59.18;101995.97;5027359;28;20103;-56
2023/04/27 03:14:22;;;;;;;2.47;2.03;;;;;;;13.44;59.32;101990.63;5026337;28;20042;-56
2023/04/27 03:16:47;;;;;;;2.30;1.83;;;;;;;13.42;58.92;101993.41;5027229;28;20498;-57
2023/04/27 03:19:13;;;;;;;2.05;1.75;;;;;;;13.43;59.10;101992.44;5027344;28;20030;-57
2023/04/27 03:21:38;;;;;;;2.13;1.92;;;;;;;13.43;59.25;102000.47;5027202;28;20053;-56
2023/04/27 03:24:04;;;;;;;3.38;2.10;;;;;;;13.43;58.85;101996.94;5027258;28;20029;-56
2023/04/27 03:26:29;;;;;;;2.88;2.05;;;;;;;13.42;59.13;101996.06;5026312;28;20033;-56
2023/04/27 03:28:54;;;;;;;2.53;1.95;;;;;;;13.43;58.79;102002.28;5026694;28;20036;-57
2023/04/27 03:31:20;;;;;;;2.10;1.90;;;;;;;13.42;58.87;102009.44;5027505;28;20048;-54
2023/04/27 03:33:45;;;;;;;1.98;1.88;;;;;;;13.42;58.78;102014.81;5026527;28;20185;-54
2023/04/27 03:36:11;;;;;;;2.38;1.80;;;;;;;13.40;58.80;102007.78;5027482;28;20025;-57
2023/04/27 03:38:37;;;;;;;2.33;2.10;;;;;;;13.40;59.13;102016.72;5026604;28;20472;-56
2023/04/27 03:41:02;;;;;;;1.58;1.40;;;;;;;13.41;58.82;102017.56;5025664;28;20103;-56
2023/04/27 03:43:28;;;;;;;2.25;1.83;;;;;;;13.40;58.82;102007.78;5025703;28;20051;-57
2023/04/27 03:45:53;;;;;;;2.33;1.73;;;;;;;13.38;58.79;102013.22;5026041;28;20026;-56
2023/04/27 03:48:19;;;;;;;2.80;2.45;;;;;;;13.39;59.10;102014.97;5026680;28;20065;-57
2023/04/27 03:50:45;;;;;;;2.17;1.95;;;;;;;13.39;59.04;102016.78;5025832;28;20083;-57
2023/04/27 03:53:11;;;;;;;2.08;1.70;;;;;;;13.37;58.79;102010.66;5027042;28;20029;-57
2023/04/27 03:55:38;;;;;;;1.77;1.67;;;;;;;13.37;58.88;102019.53;5028897;28;20091;-57
2023/04/27 03:58:03;;;;;;;3.22;1.90;;;;;;;13.36;59.01;102015.13;5027588;28;20041;-57
2023/04/27 04:00:28;;;;;;;2.40;2.20;;;;;;;13.36;58.83;102020.47;5026552;28;20471;-56
2023/04/27 04:02:54;;;;;;;2.50;1.88;;;;;;;13.36;58.95;102019.63;5025710;28;20454;-57
2023/04/27 04:05:19;;;;;;;2.97;1.80;;;;;;;13.36;59.05;102022.31;5026108;28;20029;-57
2023/04/27 04:07:45;;;;;;;2.80;1.85;;;;;;;13.35;59.05;102020.59;5025173;28;20136;-57
2023/04/27 04:10:10;;;;;;;2.55;2.17;;;;;;;13.34;58.96;102025.06;5026360;28;20476;-57
2023/04/27 04:12:36;;;;;;;2.35;1.83;;;;;;;13.35;58.65;102023.28;5027063;28;20415;-56
2023/04/27 04:15:05;;;;;;;2.60;2.17;;;;;;;13.33;58.58;102020.69;5025665;28;20422;-56
2023/04/27 04:17:32;;;;;;;2.80;1.98;;;;;;;13.34;58.96;102022.38;5008391;28;20500;-57
2023/04/27 04:19:58;;;;;;;2.20;2.00;;;;;;;13.33;58.97;102023.34;5031789;28;20037;-56
2023/04/27 04:22:23;;;;;;;2.78;1.92;;;;;;;13.33;58.67;102023.34;5025158;28;20369;-56
2023/04/27 04:24:48;;;;;;;2.20;2.00;;;;;;;13.32;58.52;102023.44;5018704;28;20102;-57
2023/04/27 04:27:14;;;;;;;2.08;1.88;;;;;;;13.32;58.75;102031.44;5024885;28;20034;-56
2023/04/27 04:29:39;;;;;;;3.40;2.03;;;;;;;13.33;58.93;102038.50;5025825;28;20112;-56
2023/04/27 04:32:06;;;;;;;2.40;1.73;;;;;;;13.30;58.47;102037.75;5025228;28;20038;-57
2023/04/27 04:34:32;;;;;;;2.58;2.08;;;;;;;13.30;58.79;102037.75;5026407;28;20033;-56
2023/04/27 04:36:57;;;;;;;1.67;1.58;;;;;;;13.29;58.74;102030.66;5025723;28;20034;-57
2023/04/27 04:39:23;;;;;;;2.97;1.98;;;;;;;13.29;58.56;102040.50;5025802;28;20125;-56
2023/04/27 04:41:48;;;;;;;1.88;1.77;;;;;;;13.28;58.63;102034.25;5025139;28;20069;-57
2023/04/27 04:44:18;;;;;;;2.25;2.05;;;;;;;13.29;59.02;102044.03;5025856;28;20442;-57
2023/04/27 04:46:43;;;;;;;4.10;1.70;;;;;;;13.29;58.60;102035.16;5027069;28;20029;-57
2023/04/27 04:49:09;;;;;;;2.97;2.20;;;;;;;13.28;58.64;102047.63;5025512;28;20541;-57
2023/04/27 04:51:34;;;;;;;2.38;1.67;;;;;;;13.28;58.92;102055.66;5016168;28;20041;-57
2023/04/27 04:54:00;;;;;;;2.33;1.75;;;;;;;13.28;58.94;102049.44;5025079;28;20032;-56
2023/04/27 04:56:25;;;;;;;2.67;2.17;;;;;;;13.28;58.98;102055.66;5025791;28;20494;-57
2023/04/27 04:58:51;;;;;;;2.20;2.00;;;;;;;13.27;58.95;102047.75;5025013;28;20033;-56
2023/04/27 05:01:16;;;;;;;3.97;1.70;;;;;;;13.26;58.50;102046.84;5025004;28;20441;-57
2023/04/27 05:03:41;;;;;;;2.50;1.85;;;;;;;13.26;58.81;102046.00;5026559;28;20029;-57
2023/04/27 05:06:07;;;;;;;2.83;1.73;;;;;;;13.26;58.84;102060.22;5024817;28;20033;-57
2023/04/27 05:08:32;;;;;;;1.77;1.63;;;;;;;13.26;58.85;102065.56;5025373;28;20052;-57
2023/04/27 05:10:57;;;;;;;1.90;1.73;;;;;;;13.25;58.58;102054.97;5006997;28;20496;-57
2023/04/27 05:13:26;;;;;;;1.98;1.88;;;;;;;13.25;58.39;102061.19;5025147;28;20527;-57
2023/04/27 05:15:51;;;;;;;2.65;2.08;;;;;;;13.25;58.86;102065.66;5025600;28;20048;-57
2023/04/27 05:18:17;;;;;;;1.98;1.70;;;;;;;13.24;58.85;102064.81;5025102;28;20036;-57
2023/04/27 05:20:43;;;;;;;2.15;1.90;;;;;;;13.24;58.94;102062.13;5025863;28;20035;-57
2023/04/27 05:23:08;;;;;;;2.35;2.00;;;;;;;13.23;58.65;102060.41;5024467;28;20052;-57
2023/04/27 05:25:40;;;;;;;2.35;2.03;;;;;;;13.23;58.96;102055.06;5022271;28;20063;-57
2023/04/27 05:28:07;;;;;;;1.90;1.80;;;;;;;13.23;58.87;102052.41;5024425;28;20033;-57
2023/04/27 05:30:33;;;;;;;3.45;1.90;;;;;;;13.22;58.88;102061.34;5020502;28;20038;-57
2023/04/27 05:32:58;;;;;;;4.53;1.77;;;;;;;13.24;58.92;102062.13;5025139;28;20430;-58
2023/04/27 05:35:23;;;;;;;2.58;2.33;;;;;;;13.25;59.03;102060.31;5018289;28;20187;-56
2023/04/27 05:37:49;;;;;;;5.00;1.90;;;;;;;13.25;59.35;102063.88;5027713;28;20033;-57
2023/04/27 05:40:14;;;;;;;9.82;2.42;;;;;;;13.25;59.55;102069.22;5025461;28;20037;-57
2023/04/27 05:42:39;;;;;;;3.50;1.85;;;;;;;13.23;59.80;102065.78;5024239;28;20017;-57
2023/04/27 05:45:06;;;;;;;3.67;1.77;;;;;;;13.24;59.64;102074.66;5024532;28;20033;-57
2023/04/27 05:47:31;;;;;;;2.90;2.00;;;;;;;13.22;59.52;102065.84;5024728;28;20415;-57
2023/04/27 05:49:56;;;;;;;2.03;1.85;;;;;;;13.21;59.03;102075.69;5022703;28;20033;-57
2023/04/27 05:52:28;;;;;;;3.90;1.95;;;;;;;13.21;59.50;102075.69;5026381;28;20029;-57
2023/04/27 05:54:53;;;;;;;5.22;2.40;;;;;;;13.21;59.05;102077.47;5003646;28;20030;-57
2023/04/27 05:57:19;;;;;;;2.65;2.10;;;;;;;13.21;59.43;102072.13;5023484;28;20490;-57
2023/04/27 05:59:44;;;;;;;2.97;2.30;;;;;;;13.20;59.48;102079.31;5019323;28;20036;-57
2023/04/27 06:02:09;;;;;;;4.00;2.60;;;;;;;13.19;58.98;102069.53;5024185;28;20033;-57
2023/04/27 06:04:36;;;;;;;3.00;2.70;;;;;;;13.18;59.43;102075.00;5026654;28;20033;-57
2023/04/27 06:07:06;;;;;;;5.40;2.33;;;;;;;13.19;59.01;102072.22;5015881;28;20053;-57
2023/04/27 06:09:31;;;;;;;3.35;2.72;;;;;;;13.17;59.37;102074.09;5025886;28;20136;-57
2023/04/27 06:11:58;;;;;;;3.92;2.30;;;;;;;13.18;58.92;102072.31;5025291;28;20480;-57
2023/04/27 06:14:24;;;;;;;3.88;2.42;;;;;;;13.17;59.29;102081.28;5023475;28;20390;-57
2023/04/27 06:16:49;;;;;;;2.63;2.42;;;;;;;13.17;59.16;102079.47;5019019;28;20041;-57
2023/04/27 06:19:15;;;;;;;3.92;2.30;;;;;;;13.16;58.89;102076.91;5027197;28;20034;-57
2023/04/27 06:21:40;;;;;;;5.18;2.92;;;;;;;13.16;59.12;102083.09;5028649;28;20383;-57
2023/04/27 06:24:06;;;;;;;5.63;2.97;;;;;;;13.16;59.00;102068.88;5027788;28;20453;-57
2023/04/27 06:26:32;;;;;;;3.83;2.63;;;;;;;13.17;59.57;102073.25;5028229;28;20487;-57
2023/04/27 06:28:58;;;;;;;4.43;3.08;;;;;;;13.16;59.45;102079.56;5027533;28;20487;-57
2023/04/27 06:31:24;;;;;;;4.75;3.45;;;;;;;13.16;59.56;102075.06;5028116;28;20026;-57
2023/04/27 06:33:50;;;;;;;4.40;3.05;;;;;;;13.16;59.76;102076.91;5028439;28;20025;-56
2023/04/27 06:36:15;;;;;;;4.35;3.20;;;;;;;13.16;59.57;102074.22;5028316;28;20144;-56
2023/04/27 06:38:41;;;;;;;7.63;3.13;;;;;;;13.14;59.56;102071.63;5028096;28;20506;-56
2023/04/27 06:41:06;;;;;;;9.95;3.85;;;;;;;13.16;59.10;102076.91;5025799;28;20037;-55
2023/04/27 06:43:31;;;;;;;7.00;3.60;;;;;;;13.15;58.72;102077.81;5027998;28;20041;-57
2023/04/27 06:45:57;;;;;;;8.23;3.25;;;;;;;13.14;58.66;102074.28;5028090;28;20116;-55
2023/04/27 06:48:22;;;;;;;5.97;3.60;;;;;;;13.14;58.32;102068.94;5027409;28;20487;-55
2023/04/27 06:50:47;;;;;;;11.43;4.20;;;;;;;13.14;58.67;102070.78;5028417;28;20148;-54
2023/04/27 06:53:13;;;;;;;5.15;3.00;;;;;;;13.16;59.34;102068.88;5026480;28;20153;-55
2023/04/27 06:55:39;;;;;;;10.52;3.42;;;;;;;13.16;59.45;102072.41;5027527;28;20064;-55
2023/04/27 06:58:04;;;;;;;12.30;3.70;;;;;;;13.18;59.05;102072.31;5020398;28;20422;-55
2023/04/27 07:00:30;;;;;;;6.20;3.35;;;;;;;13.19;59.46;102071.34;5026945;28;20037;-55
2023/04/27 07:02:56;;;;;;;6.25;3.55;;;;;;;13.19;59.45;102069.53;5027601;28;20479;-53
2023/04/27 07:05:22;;;;;;;7.32;3.97;;;;;;;13.20;59.38;102071.28;5026928;28;20045;-54
2023/04/27 07:07:47;;;;;;;8.95;3.50;;;;;;;13.21;59.33;102066.78;5027524;28;20099;-54
2023/04/27 07:10:13;;;;;;;9.05;3.80;;;;;;;13.21;59.91;102065.00;5028008;28;20047;-54
2023/04/27 07:12:39;;;;;;;5.00;2.70;;;;;;;13.23;59.70;102067.56;5027010;28;20060;-55
2023/04/27 07:15:06;;;;;;;3.88;3.38;;;;;;;13.23;59.62;102067.56;5027201;28;20033;-55
2023/04/27 07:17:31;;;;;;;11.48;3.78;;;;;;;13.25;60.12;102073.69;5026743;28;20041;-54
2023/04/27 07:19:57;;;;;;;4.00;2.92;;;;;;;13.25;60.17;102069.22;5022308;28;20042;-54
2023/04/27 07:22:22;;;;;;;5.93;3.13;;;;;;;13.24;60.27;102064.81;5025403;28;20030;-55
2023/04/27 07:24:48;;;;;;;10.70;2.80;;;;;;;13.25;60.58;102061.19;5023461;28;20030;-55
2023/04/27 07:27:13;;;;;;;9.70;3.00;;;;;;;13.25;60.20;102065.66;5020468;28;20464;-54
2023/04/27 07:29:39;;;;;;;7.35;3.30;;;;;;;13.25;60.80;102071.91;5021283;28;20444;-54
2023/04/27 07:32:06;;;;;;;9.60;3.47;;;;;;;13.25;60.93;102065.66;5020285;28;20063;-55
2023/04/27 07:34:31;;;;;;;6.60;3.08;;;;;;;13.26;60.94;102073.59;5019550;28;20041;-55
2023/04/27 07:36:56;;;;;;;7.40;2.90;;;;;;;13.27;60.84;102070.00;5024274;28;20034;-54
2023/04/27 07:39:22;;;;;;;6.32;3.40;;;;;;;13.26;61.07;102060.22;5024335;28;20029;-53
2023/04/27 07:41:48;;;;;;;9.85;3.15;;;;;;;13.26;61.29;102068.25;5021209;28;20029;-54
2023/04/27 07:44:14;;;;;;;10.57;2.95;;;;;;;13.27;61.38;102066.47;5025413;28;20052;-55
2023/04/27 07:46:40;;;;;;;9.02;3.03;;;;;;;13.27;61.13;102070.00;5023029;28;20472;-53
2023/04/27 07:49:05;;;;;;;4.68;2.97;;;;;;;13.27;61.47;102067.31;5025132;28;20498;-53
2023/04/27 07:51:30;;;;;;;4.28;2.67;;;;;;;13.28;61.83;102066.34;5018767;28;20034;-55
2023/04/27 07:53:56;;;;;;;7.22;2.95;;;;;;;13.28;61.71;102068.16;5026898;28;20061;-54
2023/04/27 07:56:21;;;;;;;9.65;2.83;;;;;;;13.28;61.93;102071.69;5022410;28;20369;-55
2023/04/27 07:58:47;;;;;;;5.50;2.80;;;;;;;13.29;61.83;102067.25;5004705;28;20375;-55
2023/04/27 08:01:12;;;;;;;6.32;2.97;;;;;;;13.29;62.00;102062.75;5022146;28;20399;-54
2023/04/27 08:03:37;;;;;;;5.60;3.00;;;;;;;13.29;62.18;102060.06;5021935;28;20061;-54
2023/04/27 08:06:03;;;;;;;3.58;2.65;;;;;;;13.30;61.70;102061.81;5027028;28;20439;-54
2023/04/27 08:08:29;;;;;;;4.10;2.90;;;;;;;13.29;62.03;102067.25;5010706;28;20404;-55
2023/04/27 08:10:55;;;;;;;7.63;3.00;;;;;;;13.30;61.76;102066.31;5022814;28;20407;-53
2023/04/27 08:13:20;;;;;;;5.72;3.30;;;;;;;13.30;61.67;102063.63;5032322;28;20038;-55
2023/04/27 08:15:45;;;;;;;11.27;2.85;;;;;;;13.31;61.74;102065.38;5025502;28;20079;-55
2023/04/27 08:18:11;;;;;;;3.15;2.63;;;;;;;13.30;61.79;102061.81;5027163;28;20033;-54
2023/04/27 08:20:36;;;;;;;4.93;3.15;;;;;;;13.29;61.57;102061.88;5025940;28;20052;-55
2023/04/27 08:23:01;;;;;;;7.82;2.97;;;;;;;13.30;61.68;102071.66;5026799;28;20078;-54
2023/04/27 08:25:27;;;;;;;4.70;2.58;;;;;;;13.30;61.69;102071.66;5025951;28;20067;-53
2023/04/27 08:27:52;;;;;;;5.72;2.90;;;;;;;13.29;61.15;102067.25;5026855;28;20036;-53
2023/04/27 08:30:18;;;;;;;3.53;2.63;;;;;;;13.29;61.18;102065.41;5026606;28;20124;-54
2023/04/27 08:32:43;;;;;;;6.30;3.10;;;;;;;13.29;61.43;102060.06;5026080;28;20068;-54
2023/04/27 08:35:09;;;;;;;7.57;2.63;;;;;;;13.29;61.53;102046.69;5025849;28;20025;-55
2023/04/27 08:37:34;;;;;;;6.43;2.55;;;;;;;13.28;61.13;102044.97;5024502;28;20033;-54
2023/04/27 08:40:00;;;;;;;3.28;2.42;;;;;;;13.29;60.94;102040.50;5024271;28;20021;-54
2023/04/27 08:42:25;;;;;;;5.85;2.78;;;;;;;13.29;60.99;102036.00;5026233;28;20061;-54
2023/04/27 08:44:50;;;;;;;3.47;2.95;;;;;;;13.29;61.00;102040.50;5025109;28;20112;-55
2023/04/27 08:47:16;;;;;;;4.65;2.72;;;;;;;13.29;61.22;102035.16;5025570;28;20039;-54
2023/04/27 08:49:41;;;;;;;6.65;2.42;;;;;;;13.29;61.32;102038.66;5024918;28;20078;-55
2023/04/27 08:52:15;;;;;;;3.70;2.70;;;;;;;13.28;61.08;102036.94;5025982;28;20068;-54
2023/04/27 08:54:40;;;;;;;3.63;2.53;;;;;;;13.28;61.24;102038.75;5026588;28;20029;-53
2023/04/27 08:57:14;;;;;;;4.30;2.47;;;;;;;13.30;60.97;102036.88;5008183;28;20048;-54
2023/04/27 08:59:39;;;;;;;3.95;2.65;;;;;;;13.29;61.28;102033.31;5029646;28;20021;-54
2023/04/27 09:02:05;;;;;;;5.05;2.42;;;;;;;13.29;61.62;102041.34;5025369;28;20033;-53
2023/04/27 09:04:40;;;;;;;3.35;2.83;;;;;;;13.30;61.13;102044.91;5026115;28;20036;-55
2023/04/27 09:07:12;;;;;;;2.28;2.00;;;;;;;13.30;61.06;102034.22;5024768;28;20056;-54
2023/04/27 09:09:37;;;;;;;;;;;;;;;13.37;61.06;102046.28;5026048;28;20121;-55
2023/04/27 09:12:21;;;;;;;5.30;2.60;;;;;;;13.33;61.16;102041.19;5026140;28;20431;-54
2023/04/27 09:15:04;;;;;;;3.47;2.38;;;;;;;13.32;61.26;102034.97;5026257;28;20038;-54
2023/04/27 09:17:30;;;;;;;7.03;2.42;;;;;;;13.30;61.07;102040.41;5029257;28;20030;-54
2023/04/27 09:20:11;;;;;;;5.35;2.30;;;;;;;13.31;61.31;102043.97;5029456;28;20115;-54
2023/04/27 09:22:47;;;;;;;3.65;2.28;;;;;;;13.34;61.16;102037.56;5029845;28;20487;-55
2023/04/27 09:25:24;;;;;;;4.07;2.45;;;;;;;13.33;61.37;102035.84;5023894;28;20029;-54
2023/04/27 09:27:49;;;;;;;4.00;2.17;;;;;;;13.32;61.34;102040.34;5027665;28;20037;-55
2023/04/27 09:30:15;;;;;;;3.30;2.20;;;;;;;13.32;61.28;102034.97;5028983;28;20033;-54
2023/04/27 09:32:57;;;;;;;3.70;2.30;;;;;;;13.33;60.89;102030.50;5029568;28;20360;-55
2023/04/27 09:35:28;;;;;;;3.33;2.35;;;;;;;13.33;60.82;102035.84;5031729;28;20120;-54
2023/04/27 09:37:54;;;;;;;4.95;2.22;;;;;;;13.34;60.87;102032.22;5029647;28;20032;-55
2023/04/27 09:40:26;;;;;;;3.13;2.35;;;;;;;13.33;60.96;102020.69;5034257;28;20112;-54
2023/04/27 09:42:53;;;;;;;2.38;2.08;;;;;;;13.34;60.82;102021.53;5029491;28;20060;-54
2023/04/27 09:45:21;;;;;;;3.28;2.25;;;;;;;13.34;61.32;102025.06;5029401;28;20390;-55
2023/04/27 09:47:47;;;;;;;5.70;2.20;;;;;;;13.34;61.39;102018.84;5029788;28;20052;-54
2023/04/27 09:50:12;;;;;;;1.85;1.65;;;;;;;13.35;61.17;102020.59;5029055;28;20037;-55
2023/04/27 09:52:38;;;;;;;4.72;2.40;;;;;;;13.35;61.22;102012.56;5029484;28;20380;-53
2023/04/27 09:55:07;;;;;;;2.80;2.00;;;;;;;13.35;61.32;102015.25;5028453;28;20030;-54
2023/04/27 09:57:39;;;;;;;1.83;1.63;;;;;;;13.35;60.78;102016.09;5029280;28;20035;-55
2023/04/27 10:00:15;;;;;;;4.75;2.42;;;;;;;13.36;61.13;102020.47;5029643;28;20510;-55
2023/04/27 10:02:55;;;;;;;4.07;2.00;;;;;;;13.35;61.35;102015.25;5028802;28;20028;-54
2023/04/27 10:05:37;;;;;;;2.90;2.10;;;;;;;13.35;61.41;102012.56;5029541;28;20033;-54
2023/04/27 10:08:04;;;;;;;2.72;2.03;;;;;;;13.35;61.31;102005.41;5028271;28;20045;-55
2023/04/27 10:10:30;;;;;;;5.10;2.58;;;;;;;13.36;60.89;102022.31;5028814;28;20033;-55
2023/04/27 10:13:06;;;;;;;3.08;2.45;;;;;;;13.36;61.47;102007.09;5029839;28;20034;-55
2023/04/27 10:15:31;;;;;;;3.40;2.20;;;;;;;13.35;60.75;102002.72;5028335;28;20046;-54
2023/04/27 10:18:03;;;;;;;4.10;2.30;;;;;;;13.35;60.71;102004.53;5029297;28;20091;-55
2023/04/27 10:20:35;;;;;;;3.30;2.30;;;;;;;13.36;60.95;102006.25;5028584;28;20060;-54
2023/04/27 10:23:00;;;;;;;2.42;2.17;;;;;;;13.36;60.88;102015.13;5028333;28;20104;-54
2023/04/27 10:25:28;;;;;;;4.55;2.05;;;;;;;13.36;61.34;102011.59;5028988;28;20101;-53
2023/04/27 10:28:01;;;;;;;3.92;1.90;;;;;;;13.37;61.29;102010.66;5028635;28;20025;-55
2023/04/27 10:30:37;;;;;;;3.63;2.30;;;;;;;13.37;61.36;102016.88;5027156;28;20036;-54
2023/04/27 10:33:05;;;;;;;2.92;2.22;;;;;;;13.37;61.25;102013.34;5028779;28;20112;-55
2023/04/27 10:35:40;;;;;;;3.25;2.10;;;;;;;13.37;61.12;102016.88;5010419;28;20033;-55
2023/04/27 10:38:17;;;;;;;3.42;2.60;;;;;;;13.37;61.15;102016.88;5028171;28;20068;-55
2023/04/27 10:40:44;;;;;;;4.35;2.22;;;;;;;13.38;60.90;102007.03;5032799;28;20061;-55
2023/04/27 10:43:15;;;;;;;3.88;2.22;;;;;;;13.37;60.89;102005.31;5027754;28;20086;-54
2023/04/27 10:45:42;;;;;;;3.15;1.83;;;;;;;13.38;60.94;102001.69;5028094;28;20061;-54
2023/04/27 10:48:07;;;;;;;7.18;2.15;;;;;;;13.38;61.06;101999.84;5028864;28;20032;-55
2023/04/27 10:50:33;;;;;;;3.03;2.15;;;;;;;13.38;61.11;102001.69;5027962;28;20038;-54
2023/04/27 10:53:04;;;;;;;3.03;2.15;;;;;;;13.38;61.46;102001.69;5029016;28;20025;-55
2023/04/27 10:55:30;;;;;;;2.22;1.60;;;;;;;13.39;61.51;102000.75;5031275;28;20040;-54
2023/04/27 10:57:56;;;;;;;3.38;2.33;;;;;;;13.39;61.35;101987.38;5028671;28;20180;-54
2023/04/27 11:00:23;;;;;;;2.30;1.98;;;;;;;13.39;61.35;101990.03;5033637;28;20040;-55
2023/04/27 11:02:48;;;;;;;3.35;2.20;;;;;;;13.39;61.25;101988.22;5028937;28;20029;-55
2023/04/27 11:05:28;;;;;;;3.70;1.92;;;;;;;13.41;61.23;101994.34;5022507;28;20502;-54
2023/04/27 11:08:07;;;;;;;3.17;2.17;;;;;;;13.43;61.17;101986.22;5026003;28;20054;-55
2023/04/27 11:10:34;;;;;;;2.88;2.05;;;;;;;13.42;61.25;101976.47;5029231;28;20500;-55
2023/04/27 11:13:06;;;;;;;3.35;1.95;;;;;;;13.42;61.17;101961.28;5027342;28;20026;-54
2023/04/27 11:15:43;;;;;;;2.70;2.13;;;;;;;13.43;61.62;101956.81;5027368;28;20029;-55
2023/04/27 11:18:09;;;;;;;2.72;2.15;;;;;;;13.44;61.38;101963.84;5028228;28;20123;-54
2023/04/27 11:20:35;;;;;;;3.83;1.90;;;;;;;13.42;61.01;101961.28;5027074;28;20472;-54